HARTSFIELD - JACKSON ATLANTA INTL

KATL (ATL)
Atlanta, Georgia
Towered

Vatsim Metar:
KATL 251652Z 19007KT 10SM FEW030 SCT120 BKN150 BKN250 23/16 A2993 RMK AO2 SLP129 VIRGA N-NE-E ACC DSNT W T02280156

No ATC Online

Traffic

Inbound:
Ident
Type
Name
ETA
Phase
DAL2393
A320/L
Ian Griffith
17:45 Z
Descent
DAL2176
MD88/L
Erez Stozenko LLBG
17:47 Z
Descent
BAW227
H/B788/L
Jonathan Smith EGLL
17:56 Z
Descent
DAL3159
H/B737/G
patrick hramika KATL
Boarding
DAL2345
A320
Sebastian Macias KIAH
Boarding
QTR106
A359/L
Charbel Jreig
13:04 Z
Climb

Outbound:
Ident
Type
Name
Destination
Phase
DAL1804
MD88/L
Eric Schreiber KSLC
CYYZ
Boarding
DAL2109
A321/L
Jonathan Hager KDEN
KMCO
Boarding